Time;durP1;ratioP1;P1;durP2;ratioP2;P2;SDS_P1;SDS_P2;PMS_P1;PMS_P2;Temp;Humidity;BMP_temperature;BMP_pressure;BME280_temperature;BME280_humidity;BME280_pressure;Samples;Min_cycle;Max_cycle;Signal;HPM_P1;HPM_P2
2022/01/01 00:01:07;;;;;;;79.63;32.95;;;11.00;99.90;;;;;;5035800;28;20025;-62
2022/01/01 00:03:33;;;;;;;81.10;28.83;;;11.00;99.90;;;;;;5037169;28;20114;-63
2022/01/01 00:05:58;;;;;;;80.78;27.77;;;11.10;99.90;;;;;;5039615;28;20073;-62
2022/01/01 00:08:24;;;;;;;46.75;17.15;;;11.10;99.90;;;;;;5038704;28;20393;-63
2022/01/01 00:10:49;;;;;;;63.33;19.83;;;11.10;99.90;;;;;;5038088;28;20026;-63
2022/01/01 00:13:15;;;;;;;52.90;20.05;;;11.10;99.90;;;;;;5039910;28;20041;-63
2022/01/01 00:15:41;;;;;;;71.97;24.00;;;11.20;99.90;;;;;;5036707;28;20045;-63
2022/01/01 00:18:06;;;;;;;60.13;23.73;;;11.20;99.90;;;;;;5037285;28;20033;-62
2022/01/01 00:20:32;;;;;;;66.20;25.48;;;11.20;99.90;;;;;;5039320;28;20044;-64
2022/01/01 00:22:57;;;;;;;58.50;23.30;;;11.10;99.90;;;;;;5037816;28;20116;-62
2022/01/01 00:25:23;;;;;;;60.90;22.58;;;11.10;99.90;;;;;;5039315;28;20113;-63
2022/01/01 00:27:49;;;;;;;64.43;27.33;;;11.20;99.90;;;;;;5038516;28;20037;-62
2022/01/01 00:30:14;;;;;;;81.50;31.50;;;11.20;99.90;;;;;;5037914;28;20026;-62
2022/01/01 00:32:40;;;;;;;83.18;31.83;;;11.10;99.90;;;;;;5039306;28;20041;-63
2022/01/01 00:35:06;;;;;;;92.32;34.25;;;11.20;99.90;;;;;;5036945;28;20109;-62
2022/01/01 00:37:32;;;;;;;93.47;35.13;;;11.20;99.90;;;;;;5031321;28;20382;-63
2022/01/01 00:39:58;;;;;;;86.38;36.08;;;11.20;99.90;;;;;;5039541;28;20032;-62
2022/01/01 00:42:24;;;;;;;91.47;39.00;;;11.10;99.90;;;;;;5036235;28;20053;-62
2022/01/01 00:44:49;;;;;;;102.13;36.55;;;11.10;99.90;;;;;;5038253;28;20030;-62
2022/01/01 00:47:15;;;;;;;90.13;36.80;;;11.20;99.90;;;;;;5037961;28;20029;-62
2022/01/01 00:49:41;;;;;;;89.63;35.65;;;11.10;99.90;;;;;;5038981;28;20072;-62
2022/01/01 00:52:06;;;;;;;89.93;36.67;;;11.10;99.90;;;;;;5036743;28;20116;-62
2022/01/01 00:54:32;;;;;;;87.30;34.80;;;11.10;99.90;;;;;;5039983;28;20037;-63
2022/01/01 00:56:58;;;;;;;80.05;34.38;;;11.10;99.90;;;;;;5039894;28;20107;-62
2022/01/01 00:59:24;;;;;;;75.63;29.60;;;11.10;99.90;;;;;;5042736;28;20516;-61
2022/01/01 01:01:50;;;;;;;77.80;29.92;;;11.20;99.90;;;;;;5039697;28;20037;-63
2022/01/01 01:04:16;;;;;;;73.35;25.65;;;11.20;99.90;;;;;;5040420;28;20455;-62
2022/01/01 01:06:41;;;;;;;65.20;24.67;;;11.20;99.90;;;;;;5039507;28;20046;-62
2022/01/01 01:09:07;;;;;;;69.03;23.38;;;11.20;99.90;;;;;;5041896;28;20044;-62
2022/01/01 01:11:41;;;;;;;66.47;22.45;;;11.20;99.90;;;;;;5039677;28;20079;-61
2022/01/01 01:14:09;;;;;;;57.85;22.50;;;11.30;99.90;;;;;;5037049;28;20085;-62
2022/01/01 01:16:35;;;;;;;60.08;20.42;;;11.30;99.90;;;;;;5043042;28;20473;-63
2022/01/01 01:19:01;;;;;;;60.92;20.17;;;11.30;99.90;;;;;;5038707;28;20045;-62
2022/01/01 01:21:28;;;;;;;63.83;21.95;;;11.30;99.90;;;;;;5042370;28;20037;-63
2022/01/01 01:23:54;;;;;;;62.47;19.85;;;11.40;99.90;;;;;;5040719;28;20037;-63
2022/01/01 01:26:22;;;;;;;50.20;18.80;;;11.40;99.90;;;;;;5042041;28;20025;-62
2022/01/01 01:28:50;;;;;;;54.92;17.30;;;11.40;99.90;;;;;;5040994;28;20060;-62
2022/01/01 01:31:17;;;;;;;58.28;17.52;;;11.30;99.90;;;;;;5041331;28;20029;-61
2022/01/01 01:33:44;;;;;;;52.83;18.45;;;11.40;99.90;;;;;;5036532;28;20037;-63
2022/01/01 01:36:10;;;;;;;52.65;18.45;;;11.30;99.90;;;;;;5042774;28;20032;-61
2022/01/01 01:38:36;;;;;;;54.78;16.02;;;11.40;99.90;;;;;;5039698;28;20041;-62
2022/01/01 01:41:07;;;;;;;49.45;16.08;;;11.40;99.90;;;;;;5043165;28;20025;-61
2022/01/01 01:43:33;;;;;;;40.38;14.73;;;11.40;99.90;;;;;;5038828;28;20037;-63
2022/01/01 01:46:04;;;;;;;50.60;13.88;;;11.40;99.90;;;;;;5034237;28;20389;-62
2022/01/01 01:48:31;;;;;;;43.08;14.05;;;11.50;99.90;;;;;;5035397;28;20477;-61
2022/01/01 01:50:57;;;;;;;48.08;15.45;;;11.50;99.90;;;;;;5042693;28;20086;-62
2022/01/01 01:53:23;;;;;;;43.05;13.82;;;11.50;99.90;;;;;;5040331;28;20064;-62
2022/01/01 01:55:49;;;;;;;36.55;11.57;;;11.50;99.90;;;;;;5041118;28;20068;-61
2022/01/01 01:58:16;;;;;;;39.08;11.55;;;11.60;99.90;;;;;;5040932;28;20453;-64
2022/01/01 02:03:10;;;;;;;29.27;11.48;;;11.50;99.90;;;;;;5038913;28;20034;-61
2022/01/01 02:05:37;;;;;;;37.75;11.40;;;11.60;99.90;;;;;;5041676;28;20037;-62
2022/01/01 02:08:04;;;;;;;46.60;13.23;;;11.60;99.90;;;;;;5037110;28;20034;-62
2022/01/01 02:10:32;;;;;;;32.80;10.82;;;11.60;99.90;;;;;;5042147;28;20037;-62
2022/01/01 02:12:58;;;;;;;37.88;12.20;;;11.60;99.90;;;;;;5035246;28;20472;-63
2022/01/01 02:18:12;;;;;;;38.78;11.70;;;11.60;99.90;;;;;;5038631;28;20057;-62
2022/01/01 02:20:37;;;;;;;33.10;10.02;;;11.70;99.90;;;;;;5040160;28;20059;-62
2022/01/01 02:23:03;;;;;;;33.20;10.38;;;11.70;99.90;;;;;;5039472;28;20033;-61
2022/01/01 02:25:29;;;;;;;30.55;11.57;;;11.70;99.90;;;;;;5042345;28;20068;-62
2022/01/01 02:27:55;;;;;;;29.05;9.93;;;11.80;99.90;;;;;;5037665;28;20064;-61
2022/01/01 02:30:23;;;;;;;31.90;9.38;;;11.80;99.90;;;;;;5041667;28;20369;-62
2022/01/01 02:32:48;;;;;;;29.83;10.27;;;11.80;99.90;;;;;;5039498;28;20662;-61
2022/01/01 02:35:17;;;;;;;33.55;9.15;;;11.90;99.90;;;;;;5040951;28;20036;-61
2022/01/01 02:37:42;;;;;;;28.65;9.02;;;11.80;99.90;;;;;;5040800;28;20034;-61
2022/01/01 02:40:09;;;;;;;30.17;8.50;;;11.80;99.90;;;;;;5040963;28;20040;-62
2022/01/01 02:42:37;;;;;;;39.40;11.07;;;11.80;99.90;;;;;;5038495;28;20040;-62
2022/01/01 02:45:07;;;;;;;37.00;8.82;;;11.80;99.90;;;;;;5037771;28;20033;-61
2022/01/01 02:47:33;;;;;;;22.17;6.53;;;11.80;99.90;;;;;;5041203;28;20163;-62
2022/01/01 02:49:59;;;;;;;33.30;10.13;;;11.80;99.90;;;;;;5038491;28;20501;-62
2022/01/01 02:52:24;;;;;;;30.35;8.77;;;11.80;99.90;;;;;;5035000;28;20109;-62
2022/01/01 02:54:50;;;;;;;35.80;8.85;;;11.80;99.90;;;;;;5041071;28;20035;-62
2022/01/01 02:57:16;;;;;;;29.35;9.48;;;11.80;99.90;;;;;;5039794;28;20425;-61
2022/01/01 02:59:42;;;;;;;32.17;9.32;;;11.80;99.90;;;;;;5039678;28;20061;-62
2022/01/01 03:02:08;;;;;;;30.92;8.75;;;11.80;99.90;;;;;;5040495;28;20091;-62
2022/01/01 03:04:33;;;;;;;32.17;9.63;;;11.80;99.90;;;;;;5038792;28;20116;-63
2022/01/01 03:07:00;;;;;;;29.65;9.07;;;11.80;99.90;;;;;;5041852;28;20025;-63
2022/01/01 03:09:33;;;;;;;32.28;10.00;;;11.80;99.90;;;;;;5038589;28;20037;-63
2022/01/01 03:11:58;;;;;;;33.90;9.52;;;11.90;99.90;;;;;;5034524;28;20095;-62
2022/01/01 03:14:24;;;;;;;43.60;11.52;;;11.80;99.90;;;;;;5040560;28;20033;-63
2022/01/01 03:16:51;;;;;;;44.60;11.18;;;11.80;99.90;;;;;;5038100;28;20025;-62
2022/01/01 03:19:16;;;;;;;40.15;10.27;;;11.80;99.90;;;;;;5040701;28;20760;-62
2022/01/01 03:21:42;;;;;;;46.20;12.35;;;11.80;99.90;;;;;;5039032;28;20041;-63
2022/01/01 03:24:09;;;;;;;34.20;11.63;;;11.80;99.90;;;;;;5039016;28;20040;-62
2022/01/01 03:26:34;;;;;;;29.38;10.13;;;11.80;99.90;;;;;;5040508;28;20067;-63
2022/01/01 03:29:00;;;;;;;30.17;10.40;;;11.80;99.90;;;;;;5039175;28;20065;-63
2022/01/01 03:31:26;;;;;;;28.15;10.13;;;11.80;99.90;;;;;;5042010;28;20684;-62
2022/01/01 03:33:52;;;;;;;35.92;11.27;;;11.80;99.90;;;;;;5038984;28;20033;-62
2022/01/01 03:36:18;;;;;;;33.50;12.35;;;11.80;99.90;;;;;;5042589;28;20112;-62
2022/01/01 03:38:43;;;;;;;36.45;10.40;;;11.80;99.90;;;;;;5050871;28;20067;-61
2022/01/01 03:41:09;;;;;;;39.45;11.70;;;11.90;99.90;;;;;;5051213;28;20033;-62
2022/01/01 03:43:35;;;;;;;33.97;10.70;;;11.90;99.90;;;;;;5051301;28;20382;-63
2022/01/01 03:46:00;;;;;;;31.98;10.23;;;11.90;99.90;;;;;;5034636;28;20049;-62
2022/01/01 03:48:27;;;;;;;32.35;9.73;;;11.90;99.90;;;;;;5041150;28;20087;-62
2022/01/01 03:50:52;;;;;;;30.40;11.10;;;11.90;99.90;;;;;;5037595;28;20030;-63
2022/01/01 03:53:18;;;;;;;32.15;9.98;;;11.90;99.90;;;;;;5040809;28;20532;-63
2022/01/01 03:55:44;;;;;;;38.30;11.48;;;11.90;99.90;;;;;;5036559;28;20033;-63
2022/01/01 03:58:09;;;;;;;34.50;9.77;;;11.90;99.90;;;;;;5037997;28;20040;-63
2022/01/01 04:00:36;;;;;;;33.35;10.70;;;11.90;99.90;;;;;;5038710;28;20037;-63
2022/01/01 04:03:07;;;;;;;30.40;10.57;;;11.80;99.90;;;;;;5040127;28;20029;-63
2022/01/01 04:05:35;;;;;;;32.35;10.80;;;11.80;99.90;;;;;;5038222;28;20773;-62
2022/01/01 04:08:01;;;;;;;34.15;11.90;;;11.80;99.90;;;;;;5040103;28;20519;-62
2022/01/01 04:10:26;;;;;;;27.85;10.70;;;11.80;99.90;;;;;;5041277;28;20037;-63
2022/01/01 04:12:52;;;;;;;43.85;13.27;;;11.80;99.90;;;;;;5041334;28;20032;-62
2022/01/01 04:15:17;;;;;;;34.22;11.60;;;11.80;99.90;;;;;;5037847;28;20038;-63
2022/01/01 04:17:43;;;;;;;38.85;11.13;;;11.80;99.90;;;;;;5041350;28;20025;-63
2022/01/01 04:20:09;;;;;;;35.60;10.90;;;11.80;99.90;;;;;;5054628;28;20424;-63
2022/01/01 04:22:35;;;;;;;33.47;9.20;;;11.80;99.90;;;;;;5050514;28;20033;-63
2022/01/01 04:25:01;;;;;;;32.83;9.75;;;11.90;99.90;;;;;;5056443;28;20039;-67
2022/01/01 04:27:26;;;;;;;24.27;8.75;;;11.90;99.90;;;;;;5058435;28;20060;-67
2022/01/01 04:29:52;;;;;;;27.73;8.98;;;11.80;99.90;;;;;;5040554;28;20044;-62
2022/01/01 04:32:18;;;;;;;37.20;10.23;;;11.80;99.90;;;;;;5044061;28;20048;-63
2022/01/01 04:34:44;;;;;;;25.75;8.85;;;11.80;99.90;;;;;;5041388;28;20045;-62
2022/01/01 04:37:15;;;;;;;32.28;8.55;;;11.70;99.90;;;;;;5043588;28;20080;-62
2022/01/01 04:39:40;;;;;;;;;;;11.70;99.90;;;;;;5042226;28;20504;-62
2022/01/01 04:42:06;;;;;;;31.20;8.88;;;11.60;99.90;;;;;;5043354;28;19921;-62
2022/01/01 04:44:32;;;;;;;25.90;8.02;;;11.50;99.90;;;;;;5041804;28;20030;-63
2022/01/01 04:46:57;;;;;;;24.45;8.10;;;11.50;99.90;;;;;;5043519;28;20126;-62
2022/01/01 04:49:23;;;;;;;31.85;7.95;;;11.50;99.90;;;;;;5040762;28;20040;-62
2022/01/01 04:51:52;;;;;;;34.88;8.55;;;11.50;99.90;;;;;;5043890;28;20045;-62
2022/01/01 04:54:17;;;;;;;26.38;8.32;;;11.50;99.90;;;;;;5036606;28;20112;-63
2022/01/01 04:56:48;;;;;;;38.45;9.05;;;11.40;99.90;;;;;;5043096;28;20135;-62
2022/01/01 04:59:14;;;;;;;;;;;11.40;99.90;;;;;;5041599;28;20080;-62
2022/01/01 05:01:41;;;;;;;24.90;7.18;;;11.40;99.90;;;;;;5040835;28;19936;-63
2022/01/01 05:04:07;;;;;;;29.50;9.25;;;11.40;99.90;;;;;;5043942;28;20040;-63
2022/01/01 05:06:33;;;;;;;23.00;7.60;;;11.40;99.90;;;;;;5042059;28;20062;-62
2022/01/01 05:09:00;;;;;;;29.73;9.63;;;11.40;99.90;;;;;;5041723;28;20037;-62
2022/01/01 05:11:26;;;;;;;30.63;8.80;;;11.40;99.90;;;;;;5043355;28;20053;-62
2022/01/01 05:13:52;;;;;;;36.63;8.48;;;11.50;99.90;;;;;;5038891;28;20121;-62
2022/01/01 05:16:19;;;;;;;20.05;8.13;;;11.40;99.90;;;;;;5044173;28;20128;-62
2022/01/01 05:18:45;;;;;;;26.65;7.72;;;11.40;99.90;;;;;;5043132;28;20029;-63
2022/01/01 05:21:11;;;;;;;25.65;7.45;;;11.50;99.90;;;;;;5040544;28;21674;-63
2022/01/01 05:23:36;;;;;;;19.80;6.72;;;11.50;99.90;;;;;;5042055;28;20179;-63
2022/01/01 05:26:03;;;;;;;26.42;7.53;;;11.50;99.90;;;;;;5042229;28;20090;-62
2022/01/01 05:28:29;;;;;;;22.88;6.88;;;11.50;99.90;;;;;;5040534;28;20113;-63
2022/01/01 05:30:54;;;;;;;20.48;6.85;;;11.50;99.90;;;;;;5042935;28;20123;-62
2022/01/01 05:33:20;;;;;;;23.83;6.60;;;11.60;99.90;;;;;;5040175;28;20538;-63
2022/01/01 05:35:45;;;;;;;17.38;6.63;;;11.60;99.90;;;;;;5043200;28;20067;-62
2022/01/01 05:38:11;;;;;;;22.20;7.97;;;11.60;99.90;;;;;;5040498;28;20504;-63
2022/01/01 05:40:36;;;;;;;31.27;6.80;;;11.60;99.90;;;;;;5043345;28;20497;-63
2022/01/01 05:43:02;;;;;;;20.70;6.75;;;11.60;99.90;;;;;;5041258;28;20072;-63
2022/01/01 05:45:28;;;;;;;21.02;7.00;;;11.50;99.90;;;;;;5040734;28;20053;-64
2022/01/01 05:47:53;;;;;;;18.65;6.50;;;11.50;99.90;;;;;;5042563;28;20366;-62
2022/01/01 05:50:20;;;;;;;21.85;6.90;;;11.50;99.90;;;;;;5039527;28;20036;-62
2022/01/01 05:52:46;;;;;;;21.90;6.70;;;11.40;99.90;;;;;;5042858;28;20276;-63
2022/01/01 05:55:12;;;;;;;28.33;6.72;;;11.40;99.90;;;;;;5039721;28;20075;-64
2022/01/01 05:57:38;;;;;;;22.15;6.97;;;11.20;99.90;;;;;;5041554;28;20037;-62
2022/01/01 06:00:07;;;;;;;20.65;6.07;;;11.20;99.90;;;;;;5040532;28;20036;-62
2022/01/01 06:02:42;;;;;;;23.70;5.78;;;11.10;99.90;;;;;;5040985;28;20056;-64
2022/01/01 06:05:09;;;;;;;22.23;5.57;;;11.10;99.90;;;;;;5036935;28;20124;-63
2022/01/01 06:07:34;;;;;;;20.25;6.13;;;11.00;99.90;;;;;;5040040;28;20045;-62
2022/01/01 06:10:00;;;;;;;20.55;5.90;;;11.00;99.90;;;;;;5040860;28;20037;-62
2022/01/01 06:12:26;;;;;;;25.30;6.07;;;10.90;99.90;;;;;;5040243;28;20048;-61
2022/01/01 06:14:52;;;;;;;17.13;5.88;;;10.90;99.90;;;;;;5042170;28;20033;-63
2022/01/01 06:17:18;;;;;;;18.77;6.35;;;10.80;99.90;;;;;;5042623;28;20432;-62
2022/01/01 06:19:43;;;;;;;26.20;7.05;;;10.90;99.90;;;;;;5038468;28;20049;-63
2022/01/01 06:22:09;;;;;;;20.90;6.47;;;10.90;99.90;;;;;;5041300;28;20498;-63
2022/01/01 06:24:34;;;;;;;23.75;7.13;;;10.90;99.90;;;;;;5039528;28;20091;-63
2022/01/01 06:27:00;;;;;;;28.83;8.00;;;10.90;99.90;;;;;;5040888;28;20029;-62
2022/01/01 06:29:26;;;;;;;23.02;6.80;;;10.80;99.90;;;;;;5040987;28;20131;-62
2022/01/01 06:31:51;;;;;;;23.58;6.60;;;10.80;99.90;;;;;;5038868;28;20036;-64
2022/01/01 06:34:17;;;;;;;18.38;7.43;;;10.80;99.90;;;;;;5042281;28;20382;-62
2022/01/01 06:36:42;;;;;;;18.48;6.20;;;10.80;99.90;;;;;;5038278;28;20067;-63
2022/01/01 06:39:08;;;;;;;18.48;5.95;;;10.80;99.90;;;;;;5041714;28;20500;-62
2022/01/01 06:41:33;;;;;;;28.50;7.60;;;10.70;99.90;;;;;;5040864;28;20041;-62
2022/01/01 06:43:59;;;;;;;26.00;6.35;;;10.70;99.90;;;;;;5042307;28;20448;-62
2022/01/01 06:46:25;;;;;;;18.63;6.47;;;10.70;99.90;;;;;;5039423;28;20029;-62
2022/01/01 06:48:50;;;;;;;21.98;6.93;;;10.80;99.90;;;;;;5038611;28;20077;-62
2022/01/01 06:51:16;;;;;;;21.52;5.60;;;10.80;99.90;;;;;;5041553;28;20116;-62
2022/01/01 06:53:42;;;;;;;18.25;5.10;;;10.80;99.90;;;;;;5037604;28;20440;-62
2022/01/01 06:56:08;;;;;;;23.80;5.70;;;10.90;99.90;;;;;;5038306;28;20037;-62
2022/01/01 06:58:35;;;;;;;21.77;7.18;;;10.90;99.90;;;;;;5040613;28;20029;-62
2022/01/01 07:01:01;;;;;;;21.80;5.20;;;11.00;99.90;;;;;;5039430;28;20032;-62
2022/01/01 07:03:27;;;;;;;15.13;5.25;;;11.00;99.90;;;;;;5039948;28;20089;-68
2022/01/01 07:05:53;;;;;;;17.05;4.55;;;11.00;99.90;;;;;;5041060;28;20504;-62
2022/01/01 07:08:18;;;;;;;16.45;5.80;;;11.00;99.90;;;;;;5039885;28;20065;-62
2022/01/01 07:10:45;;;;;;;17.05;5.50;;;11.00;99.90;;;;;;5041963;28;20029;-62
2022/01/01 07:13:12;;;;;;;12.93;4.38;;;11.10;99.90;;;;;;5038244;28;20031;-63
2022/01/01 07:15:38;;;;;;;14.05;4.30;;;11.10;99.90;;;;;;5040843;28;20043;-63
2022/01/01 07:18:03;;;;;;;14.07;4.60;;;11.20;99.90;;;;;;5039126;28;20038;-63
2022/01/01 07:20:29;;;;;;;16.73;4.57;;;11.20;99.90;;;;;;5040236;28;20515;-63
2022/01/01 07:22:54;;;;;;;13.40;4.72;;;11.20;99.90;;;;;;5040192;28;20083;-62
2022/01/01 07:25:20;;;;;;;13.30;4.22;;;11.30;99.90;;;;;;5038928;28;20041;-63
2022/01/01 07:27:46;;;;;;;18.17;5.47;;;11.40;99.90;;;;;;5040740;28;20037;-63
2022/01/01 07:30:12;;;;;;;12.48;4.10;;;11.40;99.90;;;;;;5037825;28;20682;-62
2022/01/01 07:32:40;;;;;;;10.85;3.25;;;11.50;99.90;;;;;;5033571;28;20484;-63
2022/01/01 07:35:06;;;;;;;14.55;4.30;;;11.50;99.90;;;;;;5038159;28;20032;-63
2022/01/01 07:37:32;;;;;;;11.68;4.03;;;11.60;99.90;;;;;;5038383;28;20029;-63
2022/01/01 07:39:57;;;;;;;11.82;3.92;;;11.60;99.90;;;;;;5039168;28;20099;-62
2022/01/01 07:42:23;;;;;;;15.13;3.85;;;11.70;99.90;;;;;;5041220;28;20056;-63
2022/01/01 07:44:48;;;;;;;11.95;4.05;;;11.70;99.90;;;;;;5038136;28;20036;-63
2022/01/01 07:47:14;;;;;;;11.43;3.60;;;11.80;99.90;;;;;;5037932;28;20116;-62
2022/01/01 07:49:39;;;;;;;15.35;3.72;;;11.80;99.90;;;;;;5040374;28;20045;-63
2022/01/01 07:52:05;;;;;;;16.50;4.82;;;11.80;99.90;;;;;;5041881;28;20026;-62
2022/01/01 07:54:31;;;;;;;10.00;3.25;;;11.90;99.90;;;;;;5041575;28;20116;-62
2022/01/01 07:56:56;;;;;;;16.77;3.28;;;11.90;99.90;;;;;;5036318;28;20037;-63
2022/01/01 07:59:22;;;;;;;11.73;3.45;;;11.90;99.90;;;;;;5038944;28;20034;-62
2022/01/01 08:01:47;;;;;;;13.20;3.58;;;11.90;99.90;;;;;;5039612;28;20033;-62
2022/01/01 08:04:13;;;;;;;12.75;3.50;;;11.90;99.90;;;;;;5038282;28;20086;-62
2022/01/01 08:06:39;;;;;;;13.70;4.25;;;11.90;99.90;;;;;;5042921;28;20041;-63
2022/01/01 08:09:05;;;;;;;14.23;4.07;;;11.90;99.90;;;;;;5040774;28;20449;-62
2022/01/01 08:11:30;;;;;;;9.32;3.45;;;11.90;99.90;;;;;;5043924;28;20041;-61
2022/01/01 08:13:56;;;;;;;7.18;3.08;;;11.90;99.90;;;;;;5043362;28;20033;-62
2022/01/01 08:16:22;;;;;;;16.05;4.18;;;11.90;99.90;;;;;;5043210;28;20048;-62
2022/01/01 08:18:48;;;;;;;10.02;3.58;;;11.90;99.90;;;;;;5043944;28;20127;-62
2022/01/01 08:21:13;;;;;;;13.85;3.42;;;11.90;99.90;;;;;;5041406;28;20038;-62
2022/01/01 08:23:39;;;;;;;8.00;3.20;;;11.90;99.90;;;;;;5044471;28;20372;-62
2022/01/01 08:26:05;;;;;;;10.27;3.47;;;11.90;99.90;;;;;;5041514;28;20032;-62
2022/01/01 08:28:31;;;;;;;12.57;3.40;;;11.80;99.90;;;;;;5043744;28;20439;-62
2022/01/01 08:30:56;;;;;;;13.57;2.53;;;11.80;99.90;;;;;;5042425;28;20060;-62
2022/01/01 08:33:22;;;;;;;12.35;3.13;;;11.90;99.90;;;;;;5041686;28;20385;-62
2022/01/01 08:35:48;;;;;;;8.70;2.83;;;11.90;99.90;;;;;;5042930;28;20028;-62
2022/01/01 08:38:15;;;;;;;12.48;3.42;;;11.90;99.90;;;;;;5041743;28;20033;-62
2022/01/01 08:40:40;;;;;;;11.85;3.22;;;11.90;99.90;;;;;;5044026;28;20052;-63
2022/01/01 08:43:06;;;;;;;6.43;2.55;;;12.00;99.90;;;;;;5039617;28;20040;-63
2022/01/01 08:45:34;;;;;;;8.25;3.03;;;12.00;99.90;;;;;;5040697;28;20489;-62
2022/01/01 08:47:59;;;;;;;9.50;2.72;;;12.10;99.90;;;;;;5043756;28;20055;-63
2022/01/01 08:50:25;;;;;;;13.35;3.05;;;12.20;99.90;;;;;;5042072;28;20419;-62
2022/01/01 08:52:50;;;;;;;12.07;3.03;;;12.20;99.90;;;;;;5042161;28;20041;-62
2022/01/01 08:55:16;;;;;;;10.40;3.00;;;12.20;99.90;;;;;;5043471;28;20040;-62
2022/01/01 08:57:41;;;;;;;8.57;3.60;;;12.30;99.90;;;;;;5041140;28;20030;-62
2022/01/01 09:00:10;;;;;;;13.35;2.88;;;12.20;99.90;;;;;;5044214;28;20021;-62
2022/01/01 09:02:36;;;;;;;15.07;3.28;;;12.30;99.90;;;;;;5036434;28;20045;-62
2022/01/01 09:05:03;;;;;;;7.93;2.58;;;12.30;99.90;;;;;;5044248;28;20086;-62
2022/01/01 09:07:29;;;;;;;8.88;2.97;;;12.20;99.90;;;;;;5041063;28;20113;-63
2022/01/01 09:09:59;;;;;;;8.00;2.97;;;12.20;99.90;;;;;;5042711;28;20049;-62
2022/01/01 09:12:26;;;;;;;9.45;3.13;;;12.20;99.90;;;;;;5042188;28;20445;-61
2022/01/01 09:14:52;;;;;;;8.65;2.80;;;12.20;99.90;;;;;;5042737;28;20170;-63
2022/01/01 09:17:18;;;;;;;9.10;3.17;;;12.20;99.90;;;;;;5042280;28;20493;-62
2022/01/01 09:19:44;;;;;;;5.45;2.72;;;12.20;99.90;;;;;;5041342;28;20033;-62
2022/01/01 09:22:09;;;;;;;12.20;2.65;;;12.20;99.90;;;;;;5042468;28;20041;-63
2022/01/01 09:24:35;;;;;;;11.48;4.00;;;12.10;99.90;;;;;;5040384;28;20068;-62
2022/01/01 09:27:01;;;;;;;13.65;4.07;;;12.20;99.90;;;;;;5043684;28;20095;-62
2022/01/01 09:29:27;;;;;;;10.18;3.67;;;12.20;99.90;;;;;;5041266;28;20159;-62
2022/01/01 09:31:53;;;;;;;13.02;3.30;;;12.10;99.90;;;;;;5042616;28;20529;-62
2022/01/01 09:34:18;;;;;;;9.10;2.92;;;12.10;99.90;;;;;;5042989;28;20059;-62
2022/01/01 09:36:46;;;;;;;8.05;3.88;;;12.20;99.90;;;;;;5041013;28;20069;-62
2022/01/01 09:39:11;;;;;;;10.23;4.10;;;12.20;99.90;;;;;;5043367;28;20033;-62
2022/01/01 09:41:41;;;;;;;11.05;3.15;;;12.20;99.90;;;;;;5040235;28;20460;-63
2022/01/01 09:44:12;;;;;;;10.30;3.00;;;12.10;99.90;;;;;;5040777;28;20084;-62
2022/01/01 09:46:39;;;;;;;10.40;3.80;;;12.10;99.90;;;;;;5043556;28;20129;-62
2022/01/01 09:49:04;;;;;;;8.30;3.42;;;12.00;99.90;;;;;;5041784;28;20038;-62
2022/01/01 09:51:30;;;;;;;12.75;3.70;;;12.00;99.90;;;;;;5036942;28;20040;-63
2022/01/01 09:53:56;;;;;;;10.23;3.70;;;12.10;99.90;;;;;;5044114;28;20179;-62
2022/01/01 09:56:21;;;;;;;7.57;3.38;;;12.10;99.90;;;;;;5047740;28;20043;-62
2022/01/01 09:58:47;;;;;;;10.85;3.80;;;12.20;99.90;;;;;;5050331;28;22184;-63
2022/01/01 10:01:14;;;;;;;11.40;3.72;;;12.20;99.90;;;;;;5050540;28;20041;-62
2022/01/01 10:03:45;;;;;;;13.60;4.25;;;12.20;99.90;;;;;;5047031;28;20038;-63
2022/01/01 10:06:14;;;;;;;12.70;3.67;;;12.30;99.90;;;;;;5048985;28;20044;-63
2022/01/01 10:08:41;;;;;;;14.38;4.80;;;12.30;99.90;;;;;;5050762;28;20056;-61
2022/01/01 10:11:08;;;;;;;15.95;5.72;;;12.30;99.90;;;;;;5046671;28;20029;-62
2022/01/01 10:13:37;;;;;;;10.38;4.38;;;12.40;99.90;;;;;;5051649;28;20056;-64
2022/01/01 10:16:07;;;;;;;12.15;4.07;;;12.50;99.90;;;;;;5048378;28;20030;-62
2022/01/01 10:18:38;;;;;;;11.93;5.03;;;12.60;99.90;;;;;;5045891;28;20033;-64
2022/01/01 10:21:08;;;;;;;14.13;4.47;;;12.60;99.90;;;;;;5045244;28;20041;-63
2022/01/01 10:23:35;;;;;;;14.87;4.47;;;12.70;99.90;;;;;;5052101;28;20041;-63
2022/01/01 10:28:56;;;;;;;12.75;5.47;;;12.60;99.90;;;;;;5055520;28;20052;-65
2022/01/01 10:31:22;;;;;;;17.90;5.35;;;12.70;99.90;;;;;;5055150;28;20059;-66
2022/01/01 10:33:47;;;;;;;12.90;4.22;;;12.70;99.90;;;;;;5053548;28;20042;-62
2022/01/01 10:36:19;;;;;;;14.43;4.82;;;12.70;99.90;;;;;;5051765;28;20484;-63
2022/01/01 10:38:45;;;;;;;14.27;5.65;;;12.70;99.90;;;;;;5053554;28;20030;-62
2022/01/01 10:41:13;;;;;;;15.57;5.25;;;12.70;99.90;;;;;;5053117;28;20067;-62
2022/01/01 10:43:42;;;;;;;11.57;4.60;;;12.60;99.90;;;;;;5051009;28;20049;-62
2022/01/01 10:46:20;;;;;;;11.05;4.93;;;12.60;99.90;;;;;;5057894;28;20052;-62
2022/01/01 10:49:08;;;;;;;11.80;5.22;;;12.60;99.90;;;;;;5054514;28;20039;-62
2022/01/01 10:51:37;;;;;;;10.75;4.90;;;12.50;99.90;;;;;;5049632;28;20053;-62
2022/01/01 10:54:03;;;;;;;20.85;6.90;;;12.50;99.90;;;;;;5057105;28;20025;-62
2022/01/01 10:56:37;;;;;;;12.45;5.35;;;12.50;99.90;;;;;;5052001;28;20549;-65
2022/01/01 10:59:03;;;;;;;15.38;5.55;;;12.40;99.90;;;;;;5050128;28;20091;-63
2022/01/01 11:01:29;;;;;;;16.00;5.63;;;12.50;99.90;;;;;;5040133;28;20033;-64
2022/01/01 11:03:56;;;;;;;16.38;5.80;;;12.60;99.90;;;;;;5042489;28;20036;-62
2022/01/01 11:06:22;;;;;;;13.43;5.80;;;12.80;99.90;;;;;;5043400;28;20073;-62
2022/01/01 11:08:47;;;;;;;16.45;6.35;;;12.90;99.90;;;;;;5039982;28;20057;-62
2022/01/01 11:11:15;;;;;;;12.60;6.20;;;13.10;99.90;;;;;;5039567;28;20396;-62
2022/01/01 11:13:43;;;;;;;14.70;6.05;;;13.10;99.90;;;;;;5039256;28;20029;-63
2022/01/01 11:16:09;;;;;;;14.35;5.82;;;13.10;99.90;;;;;;5040560;28;20140;-62
2022/01/01 11:18:36;;;;;;;14.13;5.82;;;13.20;99.90;;;;;;5038351;28;20036;-62
2022/01/01 11:21:04;;;;;;;11.77;5.45;;;13.20;99.90;;;;;;5040400;28;20176;-62
2022/01/01 11:23:31;;;;;;;11.40;5.55;;;13.20;99.90;;;;;;5038140;28;20034;-63
2022/01/01 11:25:57;;;;;;;10.15;5.03;;;13.20;99.90;;;;;;5034569;28;20036;-62
2022/01/01 11:28:23;;;;;;;12.55;4.90;;;13.20;99.90;;;;;;5041312;28;20037;-62
2022/01/01 11:30:54;;;;;;;10.90;4.70;;;13.20;99.90;;;;;;5038336;28;20068;-62
2022/01/01 11:33:28;;;;;;;11.90;5.43;;;13.30;99.90;;;;;;5042412;28;20064;-62
2022/01/01 11:35:57;;;;;;;8.93;5.00;;;13.30;99.90;;;;;;5041176;28;20374;-62
2022/01/01 11:38:25;;;;;;;11.32;4.80;;;13.30;99.90;;;;;;5038481;28;20375;-62
2022/01/01 11:41:07;;;;;;;14.57;6.00;;;13.40;99.90;;;;;;5039953;28;20036;-62
2022/01/01 11:43:46;;;;;;;11.73;5.10;;;13.50;99.90;;;;;;5036816;28;20033;-62
2022/01/01 11:46:17;;;;;;;8.73;4.28;;;13.40;99.90;;;;;;5039502;28;20091;-62
2022/01/01 11:48:49;;;;;;;10.77;3.67;;;13.50;99.90;;;;;;5038712;28;20080;-62
2022/01/01 11:51:44;;;;;;;14.10;4.68;;;13.50;99.90;;;;;;5038294;28;20393;-62
2022/01/01 11:54:33;;;;;;;10.20;4.72;;;13.40;99.90;;;;;;5037580;28;20065;-62
2022/01/01 11:57:02;;;;;;;11.10;3.80;;;13.50;99.90;;;;;;5034318;28;20030;-62
2022/01/01 11:59:38;;;;;;;7.60;3.85;;;13.50;99.90;;;;;;5041434;28;20423;-62
2022/01/01 12:02:12;;;;;;;8.55;4.00;;;13.30;99.90;;;;;;5035540;28;20029;-63
2022/01/01 12:04:43;;;;;;;11.07;4.18;;;13.30;99.90;;;;;;5039280;28;20039;-63
2022/01/01 12:07:11;;;;;;;;;;;13.10;99.90;;;;;;5035055;28;20527;-62
2022/01/01 12:09:54;;;;;;;8.15;4.13;;;13.10;99.90;;;;;;5039405;28;20300;-63
2022/01/01 12:12:44;;;;;;;9.93;4.30;;;13.10;99.90;;;;;;5036964;28;20037;-62
2022/01/01 12:15:21;;;;;;;10.27;5.32;;;13.10;99.90;;;;;;5037208;28;20042;-62
2022/01/01 12:17:50;;;;;;;9.98;4.35;;;13.00;99.90;;;;;;5037830;28;20407;-62
2022/01/01 12:20:17;;;;;;;10.63;4.35;;;13.00;99.90;;;;;;5039356;28;20065;-62
2022/01/01 12:22:45;;;;;;;9.80;4.70;;;13.00;99.90;;;;;;5038403;28;20037;-62
2022/01/01 12:25:14;;;;;;;9.82;4.68;;;13.00;99.90;;;;;;5039573;28;20064;-62
2022/01/01 12:27:44;;;;;;;10.52;4.78;;;13.00;99.90;;;;;;5038615;28;20041;-62
2022/01/01 12:30:10;;;;;;;10.80;4.25;;;12.90;99.90;;;;;;5039501;28;20037;-62
2022/01/01 12:32:44;;;;;;;12.05;4.72;;;13.00;99.90;;;;;;5039038;28;20068;-62
2022/01/01 12:35:16;;;;;;;7.40;4.07;;;12.90;99.90;;;;;;5036888;28;20049;-62
2022/01/01 12:37:42;;;;;;;10.95;4.50;;;12.90;99.90;;;;;;5039495;28;20116;-62
2022/01/01 12:40:09;;;;;;;9.32;4.10;;;12.90;99.90;;;;;;5039078;28;20457;-62
2022/01/01 12:42:35;;;;;;;10.18;4.38;;;13.00;99.90;;;;;;5034496;28;20542;-64